イルクーツク の空港の天気 - METARとTAF

イルクーツク国際空港 ( UIII / IKT ) - ロシア イルクーツク
飛行場実況気象(Metar)
観測時間01/19 23:00 IRKT (01/19 15:00 UTC)
風向・風速南東 3m/s
視程10km以上
天気現象
なし
気温-9℃
湿度62%
気圧1023hPa
METARUIII 191500Z 13003MPS CAVOK M09/M15 Q1023 R12/810550 NOSIG RMK QFE724/0966
過去の天気等 Google飛行場航空写真 Wunderground天気予報

過去48時間のMETAR

飛行場予報(TAF)
発表時間: 1/19 22:00 IRKT (1/19 14:00 UTC)
予報対象時間: 19日23時 IRKT ~ 20日23時 IRKT
風向・風速南南東 4m/s
視程10km以上
なし
TAF UIII 191400Z 1915/2015 15004MPS CAVOK